sensor_id;sensor_type;location;lat;lon;timestamp;P1;durP1;ratioP1;P2;durP2;ratioP2
10920;SDS011;5513;50.580;8.818;2022-12-16T00:01:48;22.70;;;11.53;;
10920;SDS011;5513;50.580;8.818;2022-12-16T00:04:17;23.20;;;11.20;;
10920;SDS011;5513;50.580;8.818;2022-12-16T00:06:47;23.00;;;11.67;;
10920;SDS011;5513;50.580;8.818;2022-12-16T00:09:17;20.90;;;11.23;;
10920;SDS011;5513;50.580;8.818;2022-12-16T00:11:45;20.33;;;11.00;;
10920;SDS011;5513;50.580;8.818;2022-12-16T00:14:14;20.47;;;10.80;;
10920;SDS011;5513;50.580;8.818;2022-12-16T00:16:42;20.10;;;10.40;;
10920;SDS011;5513;50.580;8.818;2022-12-16T00:19:15;18.30;;;9.43;;
10920;SDS011;5513;50.580;8.818;2022-12-16T00:21:43;18.00;;;10.07;;
10920;SDS011;5513;50.580;8.818;2022-12-16T00:24:14;20.10;;;10.87;;
10920;SDS011;5513;50.580;8.818;2022-12-16T00:26:42;17.63;;;9.97;;
10920;SDS011;5513;50.580;8.818;2022-12-16T00:29:11;21.63;;;10.63;;
10920;SDS011;5513;50.580;8.818;2022-12-16T00:31:39;19.13;;;9.80;;
10920;SDS011;5513;50.580;8.818;2022-12-16T00:34:10;16.83;;;9.57;;
10920;SDS011;5513;50.580;8.818;2022-12-16T00:36:38;18.13;;;10.20;;
10920;SDS011;5513;50.580;8.818;2022-12-16T00:39:07;19.83;;;10.00;;
10920;SDS011;5513;50.580;8.818;2022-12-16T00:41:36;22.17;;;9.97;;
10920;SDS011;5513;50.580;8.818;2022-12-16T00:44:06;20.37;;;10.20;;
10920;SDS011;5513;50.580;8.818;2022-12-16T00:46:35;20.60;;;10.30;;
10920;SDS011;5513;50.580;8.818;2022-12-16T00:49:04;20.80;;;11.13;;
10920;SDS011;5513;50.580;8.818;2022-12-16T00:51:34;21.57;;;10.13;;
10920;SDS011;5513;50.580;8.818;2022-12-16T00:54:02;17.43;;;9.40;;
10920;SDS011;5513;50.580;8.818;2022-12-16T00:56:31;16.90;;;9.27;;
10920;SDS011;5513;50.580;8.818;2022-12-16T00:59:01;21.70;;;10.47;;
10920;SDS011;5513;50.580;8.818;2022-12-16T01:01:29;19.17;;;9.63;;
10920;SDS011;5513;50.580;8.818;2022-12-16T01:03:57;19.00;;;9.33;;
10920;SDS011;5513;50.580;8.818;2022-12-16T01:06:26;18.73;;;9.23;;
10920;SDS011;5513;50.580;8.818;2022-12-16T01:08:54;21.57;;;9.47;;
10920;SDS011;5513;50.580;8.818;2022-12-16T01:11:23;18.10;;;9.13;;
10920;SDS011;5513;50.580;8.818;2022-12-16T01:13:52;18.20;;;9.50;;
10920;SDS011;5513;50.580;8.818;2022-12-16T01:16:24;18.77;;;8.30;;
10920;SDS011;5513;50.580;8.818;2022-12-16T01:18:52;17.37;;;8.57;;
10920;SDS011;5513;50.580;8.818;2022-12-16T01:21:24;18.10;;;8.50;;
10920;SDS011;5513;50.580;8.818;2022-12-16T01:23:53;17.30;;;8.00;;
10920;SDS011;5513;50.580;8.818;2022-12-16T01:26:21;19.23;;;8.77;;
10920;SDS011;5513;50.580;8.818;2022-12-16T01:28:50;14.43;;;8.30;;
10920;SDS011;5513;50.580;8.818;2022-12-16T01:31:20;20.40;;;9.33;;
10920;SDS011;5513;50.580;8.818;2022-12-16T01:33:52;17.30;;;7.93;;
10920;SDS011;5513;50.580;8.818;2022-12-16T01:36:21;14.33;;;7.97;;
10920;SDS011;5513;50.580;8.818;2022-12-16T01:38:51;18.53;;;8.57;;
10920;SDS011;5513;50.580;8.818;2022-12-16T01:41:21;18.00;;;8.53;;
10920;SDS011;5513;50.580;8.818;2022-12-16T01:43:49;15.10;;;8.03;;
10920;SDS011;5513;50.580;8.818;2022-12-16T01:46:20;16.60;;;8.03;;
10920;SDS011;5513;50.580;8.818;2022-12-16T01:48:53;19.23;;;8.60;;
10920;SDS011;5513;50.580;8.818;2022-12-16T01:51:27;13.77;;;8.03;;
10920;SDS011;5513;50.580;8.818;2022-12-16T01:54:02;17.40;;;8.00;;
10920;SDS011;5513;50.580;8.818;2022-12-16T01:56:36;17.30;;;8.13;;
10920;SDS011;5513;50.580;8.818;2022-12-16T01:59:09;16.83;;;8.03;;
10920;SDS011;5513;50.580;8.818;2022-12-16T02:01:41;15.97;;;8.30;;
10920;SDS011;5513;50.580;8.818;2022-12-16T02:04:14;14.93;;;7.63;;
10920;SDS011;5513;50.580;8.818;2022-12-16T02:06:42;16.37;;;7.90;;
10920;SDS011;5513;50.580;8.818;2022-12-16T02:09:10;14.60;;;7.83;;
10920;SDS011;5513;50.580;8.818;2022-12-16T02:14:45;14.47;;;7.07;;
10920;SDS011;5513;50.580;8.818;2022-12-16T02:17:27;15.13;;;7.50;;
10920;SDS011;5513;50.580;8.818;2022-12-16T02:20:14;13.50;;;7.50;;
10920;SDS011;5513;50.580;8.818;2022-12-16T02:23:07;16.20;;;8.27;;
10920;SDS011;5513;50.580;8.818;2022-12-16T02:26:04;14.07;;;7.33;;
10920;SDS011;5513;50.580;8.818;2022-12-16T02:29:02;14.47;;;7.27;;
10920;SDS011;5513;50.580;8.818;2022-12-16T02:31:48;14.43;;;6.90;;
10920;SDS011;5513;50.580;8.818;2022-12-16T02:34:27;13.20;;;6.73;;
10920;SDS011;5513;50.580;8.818;2022-12-16T02:37:06;11.53;;;6.10;;
10920;SDS011;5513;50.580;8.818;2022-12-16T02:39:46;11.17;;;6.30;;
10920;SDS011;5513;50.580;8.818;2022-12-16T02:42:20;12.63;;;5.80;;
10920;SDS011;5513;50.580;8.818;2022-12-16T02:45:00;12.80;;;5.80;;
10920;SDS011;5513;50.580;8.818;2022-12-16T02:47:32;10.17;;;5.30;;
10920;SDS011;5513;50.580;8.818;2022-12-16T02:50:02;11.97;;;5.70;;
10920;SDS011;5513;50.580;8.818;2022-12-16T02:52:45;10.27;;;5.30;;
10920;SDS011;5513;50.580;8.818;2022-12-16T02:55:14;8.90;;;5.03;;
10920;SDS011;5513;50.580;8.818;2022-12-16T02:57:48;10.67;;;4.93;;
10920;SDS011;5513;50.580;8.818;2022-12-16T03:00:28;8.83;;;4.73;;
10920;SDS011;5513;50.580;8.818;2022-12-16T03:03:05;12.13;;;5.30;;
10920;SDS011;5513;50.580;8.818;2022-12-16T03:05:41;11.53;;;4.80;;
10920;SDS011;5513;50.580;8.818;2022-12-16T03:08:15;12.13;;;5.40;;
10920;SDS011;5513;50.580;8.818;2022-12-16T03:10:50;8.80;;;4.23;;
10920;SDS011;5513;50.580;8.818;2022-12-16T03:13:21;9.47;;;4.53;;
10920;SDS011;5513;50.580;8.818;2022-12-16T03:15:51;8.17;;;4.40;;
10920;SDS011;5513;50.580;8.818;2022-12-16T03:18:25;8.80;;;4.60;;
10920;SDS011;5513;50.580;8.818;2022-12-16T03:20:54;8.97;;;4.67;;
10920;SDS011;5513;50.580;8.818;2022-12-16T03:23:27;9.37;;;4.93;;
10920;SDS011;5513;50.580;8.818;2022-12-16T03:26:02;9.17;;;4.77;;
10920;SDS011;5513;50.580;8.818;2022-12-16T03:28:38;10.30;;;5.43;;
10920;SDS011;5513;50.580;8.818;2022-12-16T03:31:16;12.27;;;5.13;;
10920;SDS011;5513;50.580;8.818;2022-12-16T03:33:57;9.43;;;4.73;;
10920;SDS011;5513;50.580;8.818;2022-12-16T03:36:32;7.07;;;4.60;;
10920;SDS011;5513;50.580;8.818;2022-12-16T03:39:04;9.60;;;5.20;;
10920;SDS011;5513;50.580;8.818;2022-12-16T03:41:35;10.90;;;4.93;;
10920;SDS011;5513;50.580;8.818;2022-12-16T03:44:04;7.73;;;4.57;;
10920;SDS011;5513;50.580;8.818;2022-12-16T03:46:35;8.67;;;5.00;;
10920;SDS011;5513;50.580;8.818;2022-12-16T03:49:07;9.40;;;5.03;;
10920;SDS011;5513;50.580;8.818;2022-12-16T03:51:35;9.43;;;4.73;;
10920;SDS011;5513;50.580;8.818;2022-12-16T03:54:03;14.33;;;6.03;;
10920;SDS011;5513;50.580;8.818;2022-12-16T03:56:32;11.07;;;5.87;;
10920;SDS011;5513;50.580;8.818;2022-12-16T03:59:00;12.80;;;6.00;;
10920;SDS011;5513;50.580;8.818;2022-12-16T04:01:29;8.17;;;4.97;;
10920;SDS011;5513;50.580;8.818;2022-12-16T04:03:59;11.57;;;5.43;;
10920;SDS011;5513;50.580;8.818;2022-12-16T04:06:30;10.17;;;5.47;;
10920;SDS011;5513;50.580;8.818;2022-12-16T04:09:00;13.60;;;6.53;;
10920;SDS011;5513;50.580;8.818;2022-12-16T04:11:29;12.77;;;5.90;;
10920;SDS011;5513;50.580;8.818;2022-12-16T04:14:14;14.13;;;6.73;;
10920;SDS011;5513;50.580;8.818;2022-12-16T04:17:01;12.50;;;6.13;;
10920;SDS011;5513;50.580;8.818;2022-12-16T04:19:46;13.23;;;6.87;;
10920;SDS011;5513;50.580;8.818;2022-12-16T04:22:35;13.43;;;6.70;;
10920;SDS011;5513;50.580;8.818;2022-12-16T04:25:23;11.57;;;5.77;;
10920;SDS011;5513;50.580;8.818;2022-12-16T04:27:57;13.07;;;6.37;;
10920;SDS011;5513;50.580;8.818;2022-12-16T04:30:25;13.23;;;6.83;;
10920;SDS011;5513;50.580;8.818;2022-12-16T04:33:00;11.37;;;6.13;;
10920;SDS011;5513;50.580;8.818;2022-12-16T04:35:49;13.97;;;6.50;;
10920;SDS011;5513;50.580;8.818;2022-12-16T04:38:41;14.03;;;6.13;;
10920;SDS011;5513;50.580;8.818;2022-12-16T04:41:27;11.93;;;6.03;;
10920;SDS011;5513;50.580;8.818;2022-12-16T04:44:14;13.87;;;6.30;;
10920;SDS011;5513;50.580;8.818;2022-12-16T04:47:01;13.33;;;6.07;;
10920;SDS011;5513;50.580;8.818;2022-12-16T04:49:46;12.13;;;5.97;;
10920;SDS011;5513;50.580;8.818;2022-12-16T04:52:32;10.67;;;6.10;;
10920;SDS011;5513;50.580;8.818;2022-12-16T04:55:19;12.13;;;6.33;;
10920;SDS011;5513;50.580;8.818;2022-12-16T04:58:06;12.40;;;6.60;;
10920;SDS011;5513;50.580;8.818;2022-12-16T05:00:55;11.93;;;6.23;;
10920;SDS011;5513;50.580;8.818;2022-12-16T05:03:41;14.00;;;6.20;;
10920;SDS011;5513;50.580;8.818;2022-12-16T05:06:27;15.23;;;6.60;;
10920;SDS011;5513;50.580;8.818;2022-12-16T05:09:12;12.93;;;6.03;;
10920;SDS011;5513;50.580;8.818;2022-12-16T05:12:14;11.23;;;6.17;;
10920;SDS011;5513;50.580;8.818;2022-12-16T05:15:00;14.93;;;6.77;;
10920;SDS011;5513;50.580;8.818;2022-12-16T05:17:45;15.93;;;6.50;;
10920;SDS011;5513;50.580;8.818;2022-12-16T05:20:31;11.97;;;6.70;;
10920;SDS011;5513;50.580;8.818;2022-12-16T05:23:17;11.37;;;6.00;;
10920;SDS011;5513;50.580;8.818;2022-12-16T05:26:02;14.03;;;6.63;;
10920;SDS011;5513;50.580;8.818;2022-12-16T05:28:49;11.43;;;6.40;;
10920;SDS011;5513;50.580;8.818;2022-12-16T05:31:35;16.40;;;6.83;;
10920;SDS011;5513;50.580;8.818;2022-12-16T05:34:21;11.60;;;6.60;;
10920;SDS011;5513;50.580;8.818;2022-12-16T05:37:11;15.03;;;6.53;;
10920;SDS011;5513;50.580;8.818;2022-12-16T05:39:59;18.27;;;8.17;;
10920;SDS011;5513;50.580;8.818;2022-12-16T05:42:47;12.40;;;6.67;;
10920;SDS011;5513;50.580;8.818;2022-12-16T05:45:43;13.13;;;6.57;;
10920;SDS011;5513;50.580;8.818;2022-12-16T05:48:29;12.70;;;5.93;;
10920;SDS011;5513;50.580;8.818;2022-12-16T05:51:17;12.87;;;6.13;;
10920;SDS011;5513;50.580;8.818;2022-12-16T05:54:03;11.53;;;6.67;;
10920;SDS011;5513;50.580;8.818;2022-12-16T05:56:49;13.57;;;7.37;;
10920;SDS011;5513;50.580;8.818;2022-12-16T05:59:34;17.00;;;7.77;;
10920;SDS011;5513;50.580;8.818;2022-12-16T06:02:22;15.80;;;7.20;;
10920;SDS011;5513;50.580;8.818;2022-12-16T06:05:08;13.17;;;6.93;;
10920;SDS011;5513;50.580;8.818;2022-12-16T06:08:09;13.97;;;7.47;;
10920;SDS011;5513;50.580;8.818;2022-12-16T06:10:54;14.07;;;7.07;;
10920;SDS011;5513;50.580;8.818;2022-12-16T06:13:43;13.30;;;7.10;;
10920;SDS011;5513;50.580;8.818;2022-12-16T06:16:29;16.17;;;7.70;;
10920;SDS011;5513;50.580;8.818;2022-12-16T06:19:16;15.83;;;7.17;;
10920;SDS011;5513;50.580;8.818;2022-12-16T06:22:02;17.67;;;7.67;;
10920;SDS011;5513;50.580;8.818;2022-12-16T06:24:59;15.17;;;8.30;;
10920;SDS011;5513;50.580;8.818;2022-12-16T06:27:47;16.00;;;8.53;;
10920;SDS011;5513;50.580;8.818;2022-12-16T06:30:35;18.37;;;8.97;;
10920;SDS011;5513;50.580;8.818;2022-12-16T06:33:22;18.63;;;9.47;;
10920;SDS011;5513;50.580;8.818;2022-12-16T06:36:09;15.27;;;8.10;;
10920;SDS011;5513;50.580;8.818;2022-12-16T06:39:06;15.00;;;8.23;;
10920;SDS011;5513;50.580;8.818;2022-12-16T06:41:53;15.30;;;7.83;;
10920;SDS011;5513;50.580;8.818;2022-12-16T06:44:39;13.67;;;7.27;;
10920;SDS011;5513;50.580;8.818;2022-12-16T06:47:27;17.53;;;7.67;;
10920;SDS011;5513;50.580;8.818;2022-12-16T06:50:13;15.17;;;7.27;;
10920;SDS011;5513;50.580;8.818;2022-12-16T06:53:00;16.80;;;7.27;;
10920;SDS011;5513;50.580;8.818;2022-12-16T06:55:51;17.90;;;7.83;;
10920;SDS011;5513;50.580;8.818;2022-12-16T06:58:37;12.87;;;7.10;;
10920;SDS011;5513;50.580;8.818;2022-12-16T07:01:22;15.23;;;7.87;;
10920;SDS011;5513;50.580;8.818;2022-12-16T07:04:11;15.07;;;7.70;;
10920;SDS011;5513;50.580;8.818;2022-12-16T07:06:57;16.30;;;8.27;;
10920;SDS011;5513;50.580;8.818;2022-12-16T07:09:45;13.77;;;7.40;;
10920;SDS011;5513;50.580;8.818;2022-12-16T07:12:35;13.37;;;7.13;;
10920;SDS011;5513;50.580;8.818;2022-12-16T07:15:22;12.87;;;7.00;;
10920;SDS011;5513;50.580;8.818;2022-12-16T07:18:09;15.70;;;7.77;;
10920;SDS011;5513;50.580;8.818;2022-12-16T07:20:55;17.03;;;8.80;;
10920;SDS011;5513;50.580;8.818;2022-12-16T07:23:41;19.80;;;10.40;;
10920;SDS011;5513;50.580;8.818;2022-12-16T07:26:29;21.57;;;10.63;;
10920;SDS011;5513;50.580;8.818;2022-12-16T07:29:15;14.07;;;8.50;;
10920;SDS011;5513;50.580;8.818;2022-12-16T07:32:01;15.90;;;8.13;;
10920;SDS011;5513;50.580;8.818;2022-12-16T07:34:46;19.83;;;9.63;;
10920;SDS011;5513;50.580;8.818;2022-12-16T07:37:32;17.27;;;8.63;;
10920;SDS011;5513;50.580;8.818;2022-12-16T07:40:17;22.73;;;9.57;;
10920;SDS011;5513;50.580;8.818;2022-12-16T07:43:06;18.17;;;10.20;;
10920;SDS011;5513;50.580;8.818;2022-12-16T07:45:52;20.33;;;10.60;;
10920;SDS011;5513;50.580;8.818;2022-12-16T07:48:37;22.10;;;10.30;;
10920;SDS011;5513;50.580;8.818;2022-12-16T07:51:22;21.93;;;11.13;;
10920;SDS011;5513;50.580;8.818;2022-12-16T07:54:08;23.13;;;10.90;;
10920;SDS011;5513;50.580;8.818;2022-12-16T07:56:53;23.53;;;10.43;;
10920;SDS011;5513;50.580;8.818;2022-12-16T07:59:41;25.50;;;10.97;;
10920;SDS011;5513;50.580;8.818;2022-12-16T08:02:27;23.30;;;10.87;;
10920;SDS011;5513;50.580;8.818;2022-12-16T08:05:13;23.50;;;11.77;;
10920;SDS011;5513;50.580;8.818;2022-12-16T08:07:58;23.30;;;12.43;;
10920;SDS011;5513;50.580;8.818;2022-12-16T08:10:44;26.90;;;12.50;;
10920;SDS011;5513;50.580;8.818;2022-12-16T08:13:32;23.87;;;12.90;;
10920;SDS011;5513;50.580;8.818;2022-12-16T08:16:20;22.27;;;12.10;;
10920;SDS011;5513;50.580;8.818;2022-12-16T08:19:06;23.97;;;12.87;;
10920;SDS011;5513;50.580;8.818;2022-12-16T08:21:52;23.80;;;12.57;;
10920;SDS011;5513;50.580;8.818;2022-12-16T08:24:38;24.40;;;11.90;;
10920;SDS011;5513;50.580;8.818;2022-12-16T08:27:24;28.20;;;11.97;;
10920;SDS011;5513;50.580;8.818;2022-12-16T08:30:09;28.40;;;13.20;;
10920;SDS011;5513;50.580;8.818;2022-12-16T08:32:57;27.93;;;13.47;;
10920;SDS011;5513;50.580;8.818;2022-12-16T08:35:56;29.73;;;13.43;;
10920;SDS011;5513;50.580;8.818;2022-12-16T08:38:42;22.77;;;12.37;;
10920;SDS011;5513;50.580;8.818;2022-12-16T08:41:28;26.20;;;13.30;;
10920;SDS011;5513;50.580;8.818;2022-12-16T08:44:16;31.10;;;14.50;;
10920;SDS011;5513;50.580;8.818;2022-12-16T08:47:02;30.43;;;13.40;;
10920;SDS011;5513;50.580;8.818;2022-12-16T08:49:52;27.97;;;13.93;;
10920;SDS011;5513;50.580;8.818;2022-12-16T08:52:37;31.87;;;15.37;;
10920;SDS011;5513;50.580;8.818;2022-12-16T08:55:25;26.50;;;13.40;;
10920;SDS011;5513;50.580;8.818;2022-12-16T08:58:10;32.30;;;15.40;;
10920;SDS011;5513;50.580;8.818;2022-12-16T09:00:59;34.50;;;15.27;;
10920;SDS011;5513;50.580;8.818;2022-12-16T09:03:46;31.63;;;15.60;;
10920;SDS011;5513;50.580;8.818;2022-12-16T09:06:33;25.17;;;14.10;;
10920;SDS011;5513;50.580;8.818;2022-12-16T09:09:19;32.10;;;15.27;;
10920;SDS011;5513;50.580;8.818;2022-12-16T09:12:05;24.93;;;14.10;;
10920;SDS011;5513;50.580;8.818;2022-12-16T09:14:51;37.23;;;19.93;;
10920;SDS011;5513;50.580;8.818;2022-12-16T09:17:51;31.20;;;15.87;;
10920;SDS011;5513;50.580;8.818;2022-12-16T09:20:38;34.63;;;16.13;;
10920;SDS011;5513;50.580;8.818;2022-12-16T09:23:24;36.57;;;16.00;;
10920;SDS011;5513;50.580;8.818;2022-12-16T09:26:11;29.73;;;15.43;;
10920;SDS011;5513;50.580;8.818;2022-12-16T09:28:57;30.27;;;15.50;;
10920;SDS011;5513;50.580;8.818;2022-12-16T09:31:45;30.87;;;15.30;;
10920;SDS011;5513;50.580;8.818;2022-12-16T09:34:31;26.43;;;13.67;;
10920;SDS011;5513;50.580;8.818;2022-12-16T09:37:18;22.87;;;13.37;;
10920;SDS011;5513;50.580;8.818;2022-12-16T09:40:05;23.13;;;13.23;;
10920;SDS011;5513;50.580;8.818;2022-12-16T09:42:55;26.40;;;13.40;;
10920;SDS011;5513;50.580;8.818;2022-12-16T09:45:47;24.00;;;13.10;;
10920;SDS011;5513;50.580;8.818;2022-12-16T09:48:44;23.83;;;13.33;;
10920;SDS011;5513;50.580;8.818;2022-12-16T09:51:35;26.93;;;14.13;;
10920;SDS011;5513;50.580;8.818;2022-12-16T09:54:23;25.07;;;13.97;;
10920;SDS011;5513;50.580;8.818;2022-12-16T09:57:15;29.17;;;13.37;;
10920;SDS011;5513;50.580;8.818;2022-12-16T10:00:03;25.70;;;13.23;;
10920;SDS011;5513;50.580;8.818;2022-12-16T10:02:51;21.33;;;12.37;;
10920;SDS011;5513;50.580;8.818;2022-12-16T10:05:42;22.30;;;12.27;;
10920;SDS011;5513;50.580;8.818;2022-12-16T10:08:36;22.50;;;12.00;;
10920;SDS011;5513;50.580;8.818;2022-12-16T10:11:31;20.67;;;11.53;;
10920;SDS011;5513;50.580;8.818;2022-12-16T10:14:27;22.43;;;11.90;;
10920;SDS011;5513;50.580;8.818;2022-12-16T10:17:21;18.80;;;10.83;;
10920;SDS011;5513;50.580;8.818;2022-12-16T10:20:11;23.93;;;11.07;;
10920;SDS011;5513;50.580;8.818;2022-12-16T10:23:08;19.30;;;11.10;;
10920;SDS011;5513;50.580;8.818;2022-12-16T10:26:01;17.67;;;10.70;;
10920;SDS011;5513;50.580;8.818;2022-12-16T10:28:53;15.00;;;9.23;;
10920;SDS011;5513;50.580;8.818;2022-12-16T10:31:45;15.77;;;9.67;;
10920;SDS011;5513;50.580;8.818;2022-12-16T10:34:31;18.33;;;10.57;;
10920;SDS011;5513;50.580;8.818;2022-12-16T10:37:20;12.93;;;8.20;;
10920;SDS011;5513;50.580;8.818;2022-12-16T10:40:16;46.10;;;24.63;;
10920;SDS011;5513;50.580;8.818;2022-12-16T10:43:04;47.60;;;26.30;;
10920;SDS011;5513;50.580;8.818;2022-12-16T10:45:55;27.27;;;17.47;;
10920;SDS011;5513;50.580;8.818;2022-12-16T10:48:47;26.53;;;14.90;;
10920;SDS011;5513;50.580;8.818;2022-12-16T10:51:33;18.30;;;12.90;;
10920;SDS011;5513;50.580;8.818;2022-12-16T10:54:23;22.40;;;12.80;;
10920;SDS011;5513;50.580;8.818;2022-12-16T10:57:19;10.57;;;6.23;;
10920;SDS011;5513;50.580;8.818;2022-12-16T11:00:15;14.33;;;9.80;;
10920;SDS011;5513;50.580;8.818;2022-12-16T11:03:16;16.67;;;10.50;;
10920;SDS011;5513;50.580;8.818;2022-12-16T11:06:07;9.40;;;6.73;;
10920;SDS011;5513;50.580;8.818;2022-12-16T11:09:12;36.63;;;23.00;;
10920;SDS011;5513;50.580;8.818;2022-12-16T11:12:12;23.73;;;14.97;;
10920;SDS011;5513;50.580;8.818;2022-12-16T11:15:16;15.67;;;10.80;;
10920;SDS011;5513;50.580;8.818;2022-12-16T11:18:09;34.47;;;21.63;;
10920;SDS011;5513;50.580;8.818;2022-12-16T11:21:04;41.90;;;26.43;;
10920;SDS011;5513;50.580;8.818;2022-12-16T11:24:05;12.47;;;7.03;;
10920;SDS011;5513;50.580;8.818;2022-12-16T11:26:57;20.37;;;11.73;;
10920;SDS011;5513;50.580;8.818;2022-12-16T11:29:52;8.80;;;6.07;;
10920;SDS011;5513;50.580;8.818;2022-12-16T11:32:40;7.27;;;4.50;;
10920;SDS011;5513;50.580;8.818;2022-12-16T11:35:32;9.10;;;5.60;;
10920;SDS011;5513;50.580;8.818;2022-12-16T11:38:24;7.03;;;4.50;;
10920;SDS011;5513;50.580;8.818;2022-12-16T11:41:17;11.50;;;8.17;;
10920;SDS011;5513;50.580;8.818;2022-12-16T11:44:09;6.63;;;3.87;;
10920;SDS011;5513;50.580;8.818;2022-12-16T11:47:01;6.63;;;5.33;;
10920;SDS011;5513;50.580;8.818;2022-12-16T11:49:55;8.73;;;4.60;;
10920;SDS011;5513;50.580;8.818;2022-12-16T11:52:44;7.00;;;4.83;;
10920;SDS011;5513;50.580;8.818;2022-12-16T11:55:39;6.37;;;4.23;;
10920;SDS011;5513;50.580;8.818;2022-12-16T11:58:39;6.93;;;3.83;;
10920;SDS011;5513;50.580;8.818;2022-12-16T12:01:33;6.77;;;4.40;;
10920;SDS011;5513;50.580;8.818;2022-12-16T12:04:25;5.90;;;4.37;;
10920;SDS011;5513;50.580;8.818;2022-12-16T12:07:21;6.33;;;4.53;;
10920;SDS011;5513;50.580;8.818;2022-12-16T12:16:37;5.73;;;4.33;;
10920;SDS011;5513;50.580;8.818;2022-12-16T12:19:33;5.83;;;4.00;;
10920;SDS011;5513;50.580;8.818;2022-12-16T12:22:28;5.20;;;4.13;;
10920;SDS011;5513;50.580;8.818;2022-12-16T12:25:21;7.60;;;4.43;;
10920;SDS011;5513;50.580;8.818;2022-12-16T12:28:16;6.20;;;4.60;;
10920;SDS011;5513;50.580;8.818;2022-12-16T12:31:13;7.63;;;4.70;;
10920;SDS011;5513;50.580;8.818;2022-12-16T12:34:12;6.90;;;4.70;;
10920;SDS011;5513;50.580;8.818;2022-12-16T12:37:08;6.30;;;4.60;;
10920;SDS011;5513;50.580;8.818;2022-12-16T12:40:02;6.10;;;4.50;;
10920;SDS011;5513;50.580;8.818;2022-12-16T12:43:00;7.57;;;5.13;;
10920;SDS011;5513;50.580;8.818;2022-12-16T12:49:22;7.93;;;4.67;;
10920;SDS011;5513;50.580;8.818;2022-12-16T12:52:19;6.70;;;4.93;;
10920;SDS011;5513;50.580;8.818;2022-12-16T12:55:16;8.37;;;4.57;;
10920;SDS011;5513;50.580;8.818;2022-12-16T12:58:08;6.50;;;4.67;;
10920;SDS011;5513;50.580;8.818;2022-12-16T13:00:54;5.83;;;4.20;;
10920;SDS011;5513;50.580;8.818;2022-12-16T13:03:45;5.50;;;4.00;;
10920;SDS011;5513;50.580;8.818;2022-12-16T13:06:34;6.27;;;4.23;;
10920;SDS011;5513;50.580;8.818;2022-12-16T13:09:22;5.90;;;4.00;;
10920;SDS011;5513;50.580;8.818;2022-12-16T13:12:20;7.77;;;5.10;;
10920;SDS011;5513;50.580;8.818;2022-12-16T13:15:08;19.97;;;16.13;;
10920;SDS011;5513;50.580;8.818;2022-12-16T13:24:34;5.67;;;4.10;;
10920;SDS011;5513;50.580;8.818;2022-12-16T13:27:23;4.87;;;4.23;;
10920;SDS011;5513;50.580;8.818;2022-12-16T13:30:19;7.83;;;6.30;;
10920;SDS011;5513;50.580;8.818;2022-12-16T13:33:22;5.67;;;4.50;;
10920;SDS011;5513;50.580;8.818;2022-12-16T13:36:11;6.27;;;4.73;;
10920;SDS011;5513;50.580;8.818;2022-12-16T13:39:04;6.13;;;4.03;;
10920;SDS011;5513;50.580;8.818;2022-12-16T13:42:04;5.17;;;4.57;;
10920;SDS011;5513;50.580;8.818;2022-12-16T13:45:07;5.50;;;4.03;;
10920;SDS011;5513;50.580;8.818;2022-12-16T13:48:04;7.30;;;4.00;;
10920;SDS011;5513;50.580;8.818;2022-12-16T13:51:08;6.33;;;4.80;;
10920;SDS011;5513;50.580;8.818;2022-12-16T13:54:35;6.33;;;4.97;;
10920;SDS011;5513;50.580;8.818;2022-12-16T13:57:26;5.77;;;5.10;;
10920;SDS011;5513;50.580;8.818;2022-12-16T14:00:16;14.00;;;10.27;;
10920;SDS011;5513;50.580;8.818;2022-12-16T14:03:03;12.23;;;10.13;;
10920;SDS011;5513;50.580;8.818;2022-12-16T14:05:55;6.20;;;5.53;;
10920;SDS011;5513;50.580;8.818;2022-12-16T14:08:42;5.70;;;4.40;;
10920;SDS011;5513;50.580;8.818;2022-12-16T14:11:34;10.40;;;9.30;;
10920;SDS011;5513;50.580;8.818;2022-12-16T14:14:30;8.73;;;7.37;;
10920;SDS011;5513;50.580;8.818;2022-12-16T14:17:23;18.13;;;13.37;;
10920;SDS011;5513;50.580;8.818;2022-12-16T14:20:14;17.60;;;12.67;;
10920;SDS011;5513;50.580;8.818;2022-12-16T14:23:11;11.70;;;8.93;;
10920;SDS011;5513;50.580;8.818;2022-12-16T14:26:25;9.60;;;6.67;;
10920;SDS011;5513;50.580;8.818;2022-12-16T14:29:16;15.20;;;12.60;;
10920;SDS011;5513;50.580;8.818;2022-12-16T14:32:19;23.53;;;20.03;;
10920;SDS011;5513;50.580;8.818;2022-12-16T14:35:13;9.43;;;6.87;;
10920;SDS011;5513;50.580;8.818;2022-12-16T14:38:11;7.77;;;4.73;;
10920;SDS011;5513;50.580;8.818;2022-12-16T14:41:04;11.60;;;9.07;;
10920;SDS011;5513;50.580;8.818;2022-12-16T14:43:51;7.03;;;6.10;;
10920;SDS011;5513;50.580;8.818;2022-12-16T14:46:41;8.97;;;6.50;;
10920;SDS011;5513;50.580;8.818;2022-12-16T14:49:28;11.40;;;9.90;;
10920;SDS011;5513;50.580;8.818;2022-12-16T14:52:15;7.93;;;5.70;;
10920;SDS011;5513;50.580;8.818;2022-12-16T14:55:09;8.03;;;5.27;;
10920;SDS011;5513;50.580;8.818;2022-12-16T14:58:01;5.60;;;4.50;;
10920;SDS011;5513;50.580;8.818;2022-12-16T15:00:53;5.03;;;3.57;;
10920;SDS011;5513;50.580;8.818;2022-12-16T15:03:43;5.13;;;4.10;;
10920;SDS011;5513;50.580;8.818;2022-12-16T15:06:31;5.40;;;4.10;;
10920;SDS011;5513;50.580;8.818;2022-12-16T15:09:21;17.10;;;12.87;;
10920;SDS011;5513;50.580;8.818;2022-12-16T15:12:10;12.70;;;11.13;;
10920;SDS011;5513;50.580;8.818;2022-12-16T15:14:59;10.47;;;9.37;;
10920;SDS011;5513;50.580;8.818;2022-12-16T15:18:03;5.47;;;4.20;;
10920;SDS011;5513;50.580;8.818;2022-12-16T15:20:52;8.13;;;5.57;;
10920;SDS011;5513;50.580;8.818;2022-12-16T15:23:38;7.63;;;4.83;;
10920;SDS011;5513;50.580;8.818;2022-12-16T15:26:26;8.87;;;4.67;;
10920;SDS011;5513;50.580;8.818;2022-12-16T15:29:26;6.63;;;5.33;;
10920;SDS011;5513;50.580;8.818;2022-12-16T15:32:29;6.13;;;4.50;;
10920;SDS011;5513;50.580;8.818;2022-12-16T15:35:24;7.70;;;4.73;;
10920;SDS011;5513;50.580;8.818;2022-12-16T15:38:15;6.57;;;4.10;;
10920;SDS011;5513;50.580;8.818;2022-12-16T15:41:20;7.20;;;4.20;;
10920;SDS011;5513;50.580;8.818;2022-12-16T15:44:15;5.90;;;3.97;;
10920;SDS011;5513;50.580;8.818;2022-12-16T15:47:02;6.67;;;4.57;;
10920;SDS011;5513;50.580;8.818;2022-12-16T15:49:50;8.30;;;4.47;;
10920;SDS011;5513;50.580;8.818;2022-12-16T15:52:37;5.13;;;3.93;;
10920;SDS011;5513;50.580;8.818;2022-12-16T15:55:30;6.47;;;4.53;;
10920;SDS011;5513;50.580;8.818;2022-12-16T15:58:19;6.93;;;4.67;;
10920;SDS011;5513;50.580;8.818;2022-12-16T16:01:06;5.00;;;3.97;;
10920;SDS011;5513;50.580;8.818;2022-12-16T16:03:54;6.27;;;4.10;;
10920;SDS011;5513;50.580;8.818;2022-12-16T16:06:44;6.40;;;4.30;;
10920;SDS011;5513;50.580;8.818;2022-12-16T16:09:33;6.63;;;4.27;;
10920;SDS011;5513;50.580;8.818;2022-12-16T16:12:22;7.23;;;4.30;;
10920;SDS011;5513;50.580;8.818;2022-12-16T16:15:10;7.53;;;4.00;;
10920;SDS011;5513;50.580;8.818;2022-12-16T16:17:57;7.90;;;4.13;;
10920;SDS011;5513;50.580;8.818;2022-12-16T16:20:59;6.70;;;4.00;;
10920;SDS011;5513;50.580;8.818;2022-12-16T16:23:45;7.07;;;4.00;;
10920;SDS011;5513;50.580;8.818;2022-12-16T16:26:31;6.30;;;4.10;;
10920;SDS011;5513;50.580;8.818;2022-12-16T16:29:18;5.07;;;3.90;;
10920;SDS011;5513;50.580;8.818;2022-12-16T16:32:04;6.50;;;3.87;;
10920;SDS011;5513;50.580;8.818;2022-12-16T16:34:52;6.77;;;4.53;;
10920;SDS011;5513;50.580;8.818;2022-12-16T16:37:39;6.80;;;4.57;;
10920;SDS011;5513;50.580;8.818;2022-12-16T16:40:27;7.83;;;4.97;;
10920;SDS011;5513;50.580;8.818;2022-12-16T16:43:16;9.00;;;5.00;;
10920;SDS011;5513;50.580;8.818;2022-12-16T16:46:06;7.73;;;5.07;;
10920;SDS011;5513;50.580;8.818;2022-12-16T16:49:06;9.10;;;5.00;;
10920;SDS011;5513;50.580;8.818;2022-12-16T16:51:58;8.13;;;5.07;;
10920;SDS011;5513;50.580;8.818;2022-12-16T16:54:44;6.47;;;4.63;;
10920;SDS011;5513;50.580;8.818;2022-12-16T16:57:30;8.27;;;4.73;;